Historique des mesures à Cassis (13260), France
Quotidien Résumé Fevrier 12, 2018 Unités:  Métrique    US   Métrique/US
« Précédent (Jour)
Suivant (Jour) »
Quotidien Hebdomadaire Mensuel Annuel Période au choix
  Maximum: Minimum: Moyenne:
Température: TemperatureC °C 4.5 °C 7.4 °C
Point de rosée: DewpointC °C -5.0 °C -2 °C
Humidité: Humidity % 40 % 49 %
Vitesse du vent: 0 km/h 9.3 km/h 27.4 km/h
Rafales: 0 km/h - -
Vent:- - SW
Pression: PressurehPa hPa 1007.0 hPa -
Précipitations: 0.0 mm    
Historical Graphs
 
 
Mesures pour : Fevrier 12, 2018
Heure Temperature Point de rosée Pression Vent Vitesse du vent Rafales Humidité Pluie (par heure) Conditions
TemperatureC °C DewpointC °C PressurehPa hPa Calm     Humidity % HourlyPrecipMM mm SoftwareType W/m2
00:12 10.1 °C 1.4 °C 1007.3 hPa WNW 23.8 km/h 28.5 km/h 55 % 0.0 mm open2300-1.11 W/m2
01:12 9.7 °C 1.3 °C 1007.0 hPa NW 39.9 km/h 64.7 km/h 56 % 0.0 mm open2300-1.11 W/m2
02:12 9.2 °C 1.1 °C 1007.0 hPa NW 24.8 km/h 53.9 km/h 57 % 0.0 mm open2300-1.11 W/m2
03:12 8.9 °C 0.8 °C 1007.7 hPa NNW 28.5 km/h 31.9 km/h 57 % 0.0 mm open2300-1.11 W/m2
04:12 9.1 °C 0.2 °C 1007.3 hPa NW 34.8 km/h 34.8 km/h 54 % 0.0 mm open2300-1.11 W/m2
05:12 8.9 °C 0.1 °C 1007.7 hPa North 40.7 km/h 40.7 km/h 54 % 0.0 mm open2300-1.11 W/m2
06:12 7.8 °C 0.5 °C 1007.7 hPa WNW 15 km/h 27.2 km/h 60 % 0.0 mm open2300-1.11 W/m2
07:12 7.5 °C -0.5 °C 1008.4 hPa WNW 36.5 km/h 36.5 km/h 57 % 0.0 mm open2300-1.11 W/m2
08:12 6.4 °C -0.8 °C 1009.4 hPa WNW 25.4 km/h 31.4 km/h 60 % 0.0 mm open2300-1.11 W/m2
09:12 6.9 °C -0.8 °C 1009.7 hPa WNW 26.7 km/h 38.8 km/h 58 % 0.0 mm open2300-1.11 W/m2
10:12 7.6 °C -1.2 °C 1009.7 hPa North 38.3 km/h 77.7 km/h 54 % 0.0 mm open2300-1.11 W/m2
11:12 8.6 °C -2.4 °C 1010.0 hPa North 25.4 km/h 49.2 km/h 46 % 0.0 mm open2300-1.11 W/m2
12:12 8.7 °C -2.4 °C 1010.0 hPa North 37 km/h 37 km/h 46 % 0.0 mm open2300-1.11 W/m2
13:12 8.6 °C -2.8 °C 1009.4 hPa NNW 23.8 km/h 38.8 km/h 45 % 0.0 mm open2300-1.11 W/m2
14:12 8.8 °C -3.5 °C 1008.7 hPa NW 28.5 km/h 44.6 km/h 42 % 0.0 mm open2300-1.11 W/m2
15:12 8.8 °C -4.1 °C 1008.7 hPa NNW 42.6 km/h 46.3 km/h 40 % 0.0 mm open2300-1.11 W/m2
16:12 8.4 °C -4.2 °C 1008.4 hPa NW 20.3 km/h 28.5 km/h 41 % 0.0 mm open2300-1.11 W/m2
17:12 7.8 °C -4.4 °C 1008.4 hPa NNE 13.2 km/h 48.1 km/h 42 % 0.0 mm open2300-1.11 W/m2
18:12 6.8 °C -5.0 °C 1008.4 hPa WNW 49.2 km/h 60.8 km/h 43 % 0.0 mm open2300-1.11 W/m2
19:12 6.1 °C -4.7 °C 1008.4 hPa NNW 28.5 km/h 63.7 km/h 46 % 0.0 mm open2300-1.11 W/m2
20:12 5.5 °C -4.7 °C 1009.0 hPa NW 38.3 km/h 38.3 km/h 48 % 0.0 mm open2300-1.11 W/m2
21:12 5.2 °C -4.4 °C 1009.7 hPa NNE 16.3 km/h 38.8 km/h 50 % 0.0 mm open2300-1.11 W/m2
22:12 4.8 °C -4.3 °C 1010.0 hPa North 9.3 km/h 23.8 km/h 52 % 0.0 mm open2300-1.11 W/m2
23:12 4.5 °C -4.3 °C 1009.7 hPa NW 17.9 km/h 26.7 km/h 53 % 0.0 mm open2300-1.11 W/m2
Observations météo à CASSIS
WU-History script by Weather Underground - 1 mb